NCAR-RAP Real-Time Weather Data

Output produced by METARs form (23 August 2017  07:49 UTC)
found at http://weather.rap.ucar.edu/surface/
 
KDCA 230652Z 32003KT 10SM BKN130 OVC250 27/21 A2981 RMK AO2 SLP096 T02670206
KDCA 230552Z 31006KT 7SM FEW090 BKN250 27/21 A2982 RMK AO2 SLP098 T02670206 10300 20267 50001
KDCA 230452Z 31005KT 10SM SCT038 BKN090 OVC250 29/22 A2983 RMK AO2 SLP100 T02890222 403330239
KDCA 230352Z 20010KT 10SM FEW160 BKN250 28/23 A2981 RMK AO2 SLP095 T02830228
KDCA 230252Z 20012G19KT 10SM FEW160 BKN250 29/23 A2982 RMK AO2 SLP096 OCNL LTGIC DSNT NW CB DSNT NW MOV SE T02890228 55005
KDCA 230152Z 20013KT 10SM FEW150 BKN190 29/23 A2981 RMK AO2 SLP095 T02940228
KDCA 230052Z 19012KT 10SM FEW150 FEW250 30/23 A2981 RMK AO2 SLP095 T03000228
KDCA 222352Z 18012KT 10SM FEW150 SCT250 31/24 A2983 RMK AO2 SLP101 T03060244 10333 20306 56008
KDCA 222252Z 18013KT 10SM SCT250 32/24 A2984 RMK AO2 SLP103 T03170239
KDCA 222152Z 18011G22KT 10SM FEW055 FEW250 33/22 A2984 RMK AO2 SLP105 T03280217
KDCA 222052Z 19016G22KT 10SM FEW050 33/22 A2985 RMK AO2 SLP109 T03330222 56034
KDCA 221952Z 19019G24KT 10SM SCT050 33/23 A2988 RMK AO2 SLP117 T03330228
KDCA 221852Z 18016G22KT 10SM FEW050 33/23 A2992 RMK AO2 SLP131 T03280233
KDCA 221752Z 18012G16KT 10SM FEW045 32/24 A2996 RMK AO2 SLP144 T03220244 10328 20250 58020
KDCA 221652Z 16011KT 10SM FEW040 FEW250 31/25 A2998 RMK AO2 SLP152 T03110250
KDCA 221552Z 17010KT 10SM FEW250 29/25 A3000 RMK AO2 SLP159 T02940250
KDCA 221452Z 17010KT 10SM SCT250 29/24 A3002 RMK AO2 SLP164 T02890244 56014
KDCA 221352Z 18008KT 10SM SCT250 28/24 A3003 RMK AO2 SLP168 T02780244
KDCA 221252Z 18009KT 10SM FEW017 SCT250 26/24 A3004 RMK AO2 SLP173 T02610239
KDCA 221152Z 19005KT 9SM FEW012 SCT250 25/24 A3006 RMK AO2 SLP178 70001 T02500239 10250 20239 53002
KDCA 221052Z 21003KT 8SM FEW012 SCT250 24/23 A3005 RMK AO2 SLP177 T02440233
KDCA 220952Z 20006KT 9SM BKN250 24/23 A3005 RMK AO2 SLP175 T02440233
KDCA 220852Z 20008KT 9SM BKN250 24/24 A3005 RMK AO2 SLP175 T02440239 56016
KDCA 220752Z 23003KT 8SM BKN250 24/23 A3007 RMK AO2 SLP181 T02390233
KDCA 220652Z 20006KT 10SM BKN250 24/23 A3008 RMK AO2 SLP186 T02440233
KDCA 220552Z 19005KT 10SM BKN250 24/23 A3010 RMK AO2 SLP191 T02440233 10261 20244 58010
KDCA 220452Z 13004KT 9SM BKN250 24/23 A3011 RMK AO2 SLP196 T02440233 403220239
KDCA 220352Z 18006KT 10SM BKN250 25/23 A3012 RMK AO2 SLP198 T02500233
KDCA 220252Z 19006KT 10SM BKN250 26/23 A3013 RMK AO2 SLP202 T02560233 57001
KDCA 220152Z 19006KT 10SM FEW060 SCT085 BKN250 26/22 A3013 RMK AO2 SLP203 T02560222
KDCA 220052Z 22005KT 10SM FEW055 SCT080 BKN250 26/22 A3012 RMK AO2 SLP200 OCNL LTGIC DSNT N-NE CB DSNT N-NE MOV E T02610222
KDCA 220043Z 22005KT 10SM FEW055 SCT080 BKN250 26/22 A3012 RMK AO2 OCNL LTGIC DSNT N-NE CB DSNT N-NE MOV E T02610222
KDCA 220029Z 19005KT 10SM VCTS FEW050 SCT075 BKN250 26/22 A3013 RMK AO2 LTG DSNT NW OCNL LTGIC DSNT N CB DSNT N MOV E T02610222
KDCA 220015Z 19008KT 10SM CLR 26/22 A3013 RMK AO2 LTG DSNT N AND NW T02610222
KDCA 212352Z 20007KT 10SM VCTS FEW040 SCT065 BKN250 26/22 A3013 RMK AO2 LTG DSNT N AND NE SLP202 CB DSNT E-SE MOV E 60001 T02610222 10317 20261 53004
KDCA 212252Z 17011KT 10SM FEW035 SCT060 BKN250 27/23 A3012 RMK AO2 LTG DSNT N AND NW SLP199 CB DSNT NE-SW MOV E T02670233
KDCA 212152Z 22011KT 10SM FEW032 SCT055 BKN250 28/23 A3011 RMK AO2 LTG DSNT N AND NE SLP195 CB DSNT NE-SW MOV E T02830228
KDCA 212057Z 19013KT 10SM SCT032 SCT050 BKN250 29/24 A3011 RMK AO2 LTG DSNT N AND NE CB DSNT NE-SW MOV NE T02940239
KDCA 212052Z 18015KT 10SM VCTS SCT032 BKN045 BKN250 30/24 A3012 RMK AO2 LTG DSNT N AND NE RAB13E22 TSE08 SLP198 CB DSNT SW AND NE-SE MOV NE P0000 60001 T03000239 56012
KDCA 212042Z 17019KT 10SM VCTS SCT032 SCT110 30/24 A3012 RMK AO2 LTG DSNT W-NE RAB13E22 TSE08 CB DSNT N-SE MOV NE P0000 T03000244
KDCA 212025Z 19007KT 10SM SCT030 SCT041 BKN110 BKN250 31/26 A3011 RMK AO2 LTG DSNT N RAB13E22 TSE08 CB DSNT N-SE MOV NE P0000 T03110256
KDCA 212010Z COR 18010KT 10SM VCTS SCT030TCU SCT040 BKN065 BKN250 30/25 A3011 RMK AO2 LTG DSNT N AND W TSE08 TCU SW CB DSNT NW-SE MOV NE T03000250
KDCA 211952Z COR 17008KT 10SM BKN044CB BKN100 BKN250 31/26 A3012 RMK AO2 LTG DSNT N AND W RAB25E46 SLP198 CB VC SW MOV NE CB DSNT NW-NE MOV NE P0001 T03110261
KDCA 211936Z 19006KT 9SM -RA SCT044 BKN100 BKN250 31/27 A3012 RMK AO2 RAB25 CB DSNT NE AND SE MOV NE P0001 T03110267
KDCA 211852Z 18008KT 10SM FEW035 SCT065 BKN250 31/24 A3013 RMK AO2 SLP203 CB DSNT NE AND SW MOV NE T03060244
KDCA 211752Z 20009KT 10SM SCT035 SCT250 32/24 A3015 RMK AO2 SLP210 T03170244 10322 20250 56017
KDCA 211652Z 17009KT 10SM FEW030 FEW160 SCT250 31/26 A3017 RMK AO2 SLP215 T03060256
KDCA 211552Z 18007KT 10SM FEW020 29/25 A3018 RMK AO2 SLP221 T02940250
KDCA 211452Z 17010KT 10SM SCT015 28/24 A3020 RMK AO2 SLP227 T02780244 55003
KDCA 211419Z 16008KT 10SM SCT013 27/24 A3020 RMK AO2 T02720244
KDCA 211352Z 18008KT 10SM BKN012 27/24 A3020 RMK AO2 SLP225 T02670239
KDCA 211318Z 19009KT 10SM BKN012 BKN080 26/23 A3020 RMK AO2 T02610233
KDCA 211252Z 18007KT 10SM FEW030 FEW080 SCT250 26/23 A3020 RMK AO2 SLP226 T02560233
KDCA 211152Z 15003KT 10SM FEW030 SCT080 BKN250 25/22 A3021 RMK AO2 SLP230 T02500222 10250 20239 51008
KDCA 211052Z 12005KT 10SM FEW030 SCT120 BKN250 24/22 A3020 RMK AO2 SLP226 CB DSNT SE-S T02390217
KDCA 211029Z 14005KT 10SM BKN030 BKN250 24/22 A3020 RMK AO2 T02440217
KDCA 211022Z 13004KT 10SM BKN028 BKN120 BKN250 24/22 A3020 RMK AO2 T02440217
KDCA 210952Z 12003KT 10SM SCT029 BKN038 BKN110 BKN250 24/22 A3020 RMK AO2 SLP227 T02440222
KDCA 210852Z 20003KT 10SM SCT080 BKN120 OVC250 24/22 A3019 RMK AO2 SLP222 T02440222 55000
KDCA 210752Z 00000KT 10SM BKN070 BKN110 OVC250 24/22 A3018 RMK AO2 SLP219 T02440222
KDCA 210652Z 00000KT 10SM SCT075 BKN110 BKN250 24/22 A3019 RMK AO2 SLP222 T02440222
KDCA 210552Z 15004KT 10SM SCT080 BKN100 BKN250 24/22 A3019 RMK AO2 SLP222 T02440217 10300 20244 58000
KDCA 210452Z 18004KT 10SM FEW090 SCT250 24/22 A3020 RMK AO2 SLP225 T02440222 403110211
KDCA 210352Z COR 14004KT 10SM FEW090 25/21 A3019 RMK AO2 SLP222 T02500211
KDCA 210252Z 16005KT 10SM CLR 25/21 A3019 RMK AO2 SLP223 T02500206 51023
KDCA 210152Z 15003KT 10SM CLR 26/21 A3017 RMK AO2 SLP217 T02560206
KDCA 210052Z 13007KT 10SM CLR 27/21 A3015 RMK AO2 SLP209 T02670206
KDCA 202352Z COR 00000KT 10SM FEW050 SCT250 29/17 A3012 RMK AO2 SLP200 T02890167 10311 20289 53005
KDCA 202252Z 01005KT 10SM CLR 29/18 A3011 RMK AO2 SLP196 T02940178
KDCA 202152Z 01007KT 10SM CLR 30/18 A3010 RMK AO2 SLP193 T03000178
KDCA 202052Z 01009KT 10SM FEW045 31/17 A3011 RMK AO2 SLP195 T03060172 56011
KDCA 201952Z 35009KT 10SM FEW040 31/16 A3011 RMK AO2 SLP195 T03060161